S/y Roselina — XPB8231 — position and weather

sailwx.info

Track history (hours):
 
Tides and Currents Weather Stations Pressure Air Temp Water Temp Dewpoint Dewpoint Depression Visibility Wind Speed Wind Dir Waves Ship Positions

S/y Roselina

Last reported at 2017-Oct-29 13:52 UTC. Time now 2017-Nov-24 07:39 UTC.
Position N 28°24' W 016°16'.
Warning: this ship's position is 25 days out of date.

Length 19 m; draft 2.2 m.

Type: Sailing vessel. MMSI: 219251000.

Date/timePositionNaut miles runAvg speedWind from/ knotsBaromVisibWave heightAir tempDewpointWater temp
2017-Oct-29 13:52N 28°24' W 016°16'2 5.3
2017-Oct-29 13:30N 28°25' W 016°15'2 4.7
2017-Oct-29 13:00N 28°28' W 016°15'  
2017-Oct-23 04:11N 28°28' W 016°15'0 0.0
2017-Oct-23 03:58N 28°28' W 016°15'1 1.2
2017-Oct-23 03:29N 28°27' W 016°14'2 3.9
2017-Oct-23 02:59N 28°28' W 016°13'2 5.0
2017-Oct-23 02:30N 28°29' W 016°10'3 5.1
2017-Oct-23 02:00N 28°30' W 016°07'3 4.9
2017-Oct-23 01:29N 28°32' W 016°06'2 5.2
2017-Oct-23 01:00N 28°35' W 016°05'3 5.1
2017-Oct-23 00:28N 28°37' W 016°04'4 6.0
2017-Oct-22 23:52N 28°41' W 016°03'2 6.5
2017-Oct-22 23:29N 28°43' W 016°03'6 6.9
2017-Oct-22 22:36N 28°49' W 016°02'2 6.9
2017-Oct-22 22:22N 28°51' W 016°02'3 6.9
2017-Oct-22 22:00N 28°53' W 016°01'4 7.0
2017-Oct-22 21:30N 28°57' W 016°00'4 7.1
2017-Oct-22 21:00N 29°00' W 015°60'5 7.2
2017-Oct-22 20:16N 29°05' W 015°59'3 6.7
2017-Oct-22 19:49N 29°08' W 015°58'  
Track history (hours):
 
Tides and Currents Weather Stations Pressure Air Temp Water Temp Dewpoint Dewpoint Depression Visibility Wind Speed Wind Dir Waves Ship Positions

S/y Roselina

Last reported at 2017-Oct-29 13:52 UTC. Time now 2017-Nov-24 07:39 UTC.
Position N 28°24' W 016°16'.
Warning: this ship's position is 25 days out of date.

Length 19 m; draft 2.2 m.

Type: Sailing vessel. MMSI: 219251000.

Date/timePositionNaut miles runAvg speedWind from/ knotsBaromVisibWave heightAir tempDewpointWater temp
2017-Oct-29 13:52N 28°24' W 016°16'2 5.3
2017-Oct-29 13:30N 28°25' W 016°15'2 4.7
2017-Oct-29 13:00N 28°28' W 016°15'  
2017-Oct-23 04:11N 28°28' W 016°15'0 0.0
2017-Oct-23 03:58N 28°28' W 016°15'1 1.2
2017-Oct-23 03:29N 28°27' W 016°14'2 3.9
2017-Oct-23 02:59N 28°28' W 016°13'2 5.0
2017-Oct-23 02:30N 28°29' W 016°10'3 5.1
2017-Oct-23 02:00N 28°30' W 016°07'3 4.9
2017-Oct-23 01:29N 28°32' W 016°06'2 5.2
2017-Oct-23 01:00N 28°35' W 016°05'3 5.1
2017-Oct-23 00:28N 28°37' W 016°04'4 6.0
2017-Oct-22 23:52N 28°41' W 016°03'2 6.5
2017-Oct-22 23:29N 28°43' W 016°03'6 6.9
2017-Oct-22 22:36N 28°49' W 016°02'2 6.9
2017-Oct-22 22:22N 28°51' W 016°02'3 6.9
2017-Oct-22 22:00N 28°53' W 016°01'4 7.0
2017-Oct-22 21:30N 28°57' W 016°00'4 7.1
2017-Oct-22 21:00N 29°00' W 015°60'5 7.2
2017-Oct-22 20:16N 29°05' W 015°59'3 6.7
2017-Oct-22 19:49N 29°08' W 015°58'  

Dump ship's entire track history